Brooks, Maine
Current Conditions -  °F | °C
As of 12:53 AM on Wednesday 22 Oct 2014 (Local Time) from KBGR Reporting Station
Light Rain Light Rain  
Wind Chill: 39°   Ceiling: 500
Heat Index: 45°   Visibility: 5mi
Dew Point: 43°   Wind: 14mph
Humidity: 93%   Direction: 30°NNE
Pressure: 30.18"   Gusts: NA
Location:  44.55°N, 69.12°W
Report Text: KBGR 220453Z 03012KT 5SM -RA BR BKN005 OVC030 07/06 A3018 RMK AO2 SLP218 P0007 T00720061 401220028
Loading
Personal Weather Stations






























Interactive Weather Map
Tropical Storm Tracking
New forecast layout! Learn more

10-Day Weather Forecast

Advertisements
Track Severe Weather on mobile